Time;durP1;ratioP1;P1;durP2;ratioP2;P2;SDS_P1;SDS_P2;PMS_P1;PMS_P2;Temp;Humidity;BMP_temperature;BMP_pressure;BME280_temperature;BME280_humidity;BME280_pressure;Samples;Min_cycle;Max_cycle;Signal;HPM_P1;HPM_P2
2022/05/10 00:01:39;;;;;;;26.45;15.52;;;;;;;11.31;100.00;95090.38;4780434;29;20417;-93
2022/05/10 00:04:05;;;;;;;29.60;16.52;;;;;;;11.20;100.00;95088.75;4780233;29;20072;-94
2022/05/10 00:06:44;;;;;;;33.15;18.02;;;;;;;11.21;100.00;95083.22;4779948;29;20046;-93
2022/05/10 00:09:18;;;;;;;31.42;17.33;;;;;;;11.26;100.00;95082.47;4780909;29;20083;-93
2022/05/10 00:11:46;;;;;;;33.55;18.00;;;;;;;11.22;100.00;95082.19;4780719;29;20461;-93
2022/05/10 00:14:12;;;;;;;29.48;17.63;;;;;;;11.27;100.00;95076.97;4780019;29;20129;-92
2022/05/10 00:16:43;;;;;;;29.80;16.73;;;;;;;11.25;100.00;95086.13;4779857;29;20160;-93
2022/05/10 00:19:12;;;;;;;35.78;16.85;;;;;;;11.19;100.00;95082.69;4794814;29;20080;-92
2022/05/10 00:21:43;;;;;;;37.35;16.38;;;;;;;11.04;100.00;95080.75;4779783;29;20041;-91
2022/05/10 00:24:11;;;;;;;28.85;16.63;;;;;;;11.07;100.00;95080.28;4780125;29;20035;-92
2022/05/10 00:26:36;;;;;;;26.02;15.23;;;;;;;11.18;100.00;95076.66;4794560;29;20043;-92
2022/05/10 00:29:02;;;;;;;25.48;15.73;;;;;;;11.15;100.00;95084.25;4794480;29;20039;-91
2022/05/10 00:31:31;;;;;;;22.30;13.75;;;;;;;11.33;100.00;95085.66;4779499;29;20038;-90
2022/05/10 00:33:58;;;;;;;31.38;15.75;;;;;;;11.24;100.00;95084.56;4779725;29;20035;-91
2022/05/10 00:36:27;;;;;;;24.05;14.40;;;;;;;11.15;100.00;95086.88;4779793;29;20035;-92
2022/05/10 00:38:58;;;;;;;25.08;16.00;;;;;;;10.99;100.00;95083.34;4780081;29;20031;-91
2022/05/10 00:41:36;;;;;;;31.55;15.82;;;;;;;10.87;100.00;95076.44;4779725;29;20366;-92
2022/05/10 00:44:07;;;;;;;28.50;15.88;;;;;;;10.94;100.00;95078.06;4779601;29;20030;-92
2022/05/10 00:46:40;;;;;;;24.35;14.93;;;;;;;10.92;100.00;95070.44;4794140;29;20038;-92
2022/05/10 00:49:26;;;;;;;29.35;15.80;;;;;;;11.04;100.00;95070.25;4779727;29;20030;-91
2022/05/10 00:52:03;;;;;;;31.83;15.52;;;;;;;11.05;100.00;95076.31;4779511;29;20027;-91
2022/05/10 00:55:01;;;;;;;;;;;;;;;;;;;;;
2022/05/10 00:57:54;;;;;;;28.83;14.32;;;;;;;10.97;100.00;95073.09;4810099;29;20465;-95
2022/05/10 01:00:25;;;;;;;26.20;14.07;;;;;;;10.92;100.00;95069.69;4779924;29;20035;-95
2022/05/10 01:13:17;;;;;;;26.83;15.20;;;;;;;10.71;100.00;95077.38;4815996;29;20030;-92
2022/05/10 01:15:55;;;;;;;22.00;13.20;;;;;;;10.71;100.00;95077.38;4800157;29;20031;-92
2022/05/10 01:18:23;;;;;;;26.20;14.77;;;;;;;10.68;100.00;95075.25;4785030;29;20034;-91
2022/05/10 01:20:51;;;;;;;29.90;15.20;;;;;;;10.64;100.00;95072.34;4785111;29;20031;-92
2022/05/10 01:23:25;;;;;;;31.55;15.95;;;;;;;10.85;100.00;95068.03;4785195;29;20365;-91
2022/05/10 01:26:05;;;;;;;23.88;14.55;;;;;;;10.78;100.00;95069.28;4799835;29;20445;-92
2022/05/10 01:28:51;;;;;;;30.75;15.40;;;;;;;10.70;100.00;95065.31;4785384;29;20039;-93
2022/05/10 01:31:28;;;;;;;28.48;15.23;;;;;;;10.80;100.00;95059.34;4786082;29;20038;-91
2022/05/10 01:34:11;;;;;;;32.22;15.60;;;;;;;10.83;100.00;95064.09;4784925;29;20027;-93
2022/05/10 01:36:55;;;;;;;27.73;15.63;;;;;;;10.71;100.00;95056.41;4785107;29;20030;-95
2022/05/10 01:39:30;;;;;;;29.65;14.40;;;;;;;10.87;100.00;95060.72;4785129;29;20038;-92
2022/05/10 01:42:10;;;;;;;23.85;13.98;;;;;;;11.09;100.00;95062.44;4785060;29;20121;-92
2022/05/10 01:45:00;;;;;;;23.85;14.60;;;;;;;10.92;100.00;95057.34;4785339;29;20409;-91
2022/05/10 01:47:31;;;;;;;26.63;14.82;;;;;;;11.15;100.00;95064.03;4800038;29;20456;-92
2022/05/10 01:50:08;;;;;;;26.90;13.02;;;;;;;11.11;100.00;95057.72;4799960;29;20126;-92
2022/05/10 01:56:04;;;;;;;24.45;13.18;;;;;;;10.94;100.00;95050.00;4815652;29;20091;-92
2022/05/10 01:58:34;;;;;;;;;;;;;;;10.88;100.00;95045.78;4800008;29;20042;-94
2022/05/10 02:01:13;;;;;;;22.67;13.13;;;;;;;10.73;100.00;95047.25;4784850;29;19913;-94
2022/05/10 02:03:47;;;;;;;25.90;14.68;;;;;;;10.49;100.00;95054.69;4785540;29;20027;-94
2022/05/10 02:06:30;;;;;;;23.02;12.70;;;;;;;10.47;100.00;95046.25;4799909;29;20031;-94
2022/05/10 02:09:03;;;;;;;23.52;13.60;;;;;;;10.44;100.00;95052.78;4799520;29;20035;-94
2022/05/10 02:11:29;;;;;;;24.05;14.30;;;;;;;10.49;100.00;95049.44;4815532;29;20062;-94
2022/05/10 02:14:13;;;;;;;26.85;13.00;;;;;;;10.55;100.00;95043.19;4799499;29;20070;-94
2022/05/10 02:16:46;;;;;;;24.85;13.57;;;;;;;10.60;100.00;95043.22;4785199;29;20031;-92
2022/05/10 02:19:17;;;;;;;;;;;;;;;10.64;100.00;95040.13;4785037;29;20035;-92
2022/05/10 02:21:54;;;;;;;24.77;12.60;;;;;;;10.87;100.00;95045.00;4784169;29;19912;-91
2022/05/10 02:24:39;;;;;;;23.58;12.52;;;;;;;10.94;100.00;95036.91;4796253;29;20336;-92
2022/05/10 02:27:12;;;;;;;17.55;11.95;;;;;;;10.97;100.00;95041.63;4796610;29;20038;-92
2022/05/10 02:29:52;;;;;;;23.43;12.07;;;;;;;10.92;100.00;95038.22;4781896;29;20035;-92
2022/05/10 02:35:15;;;;;;;27.90;13.00;;;;;;;10.36;100.00;95031.47;4798663;29;20045;-93
2022/05/10 02:37:41;;;;;;;23.30;12.45;;;;;;;10.27;100.00;95036.38;4781490;29;20026;-92
2022/05/10 02:40:09;;;;;;;21.55;12.15;;;;;;;10.27;100.00;95034.53;4796740;29;20039;-92
2022/05/10 02:42:35;;;;;;;27.73;12.40;;;;;;;10.23;100.00;95038.69;4781525;29;20041;-92
2022/05/10 02:45:03;;;;;;;23.23;13.52;;;;;;;10.37;100.00;95039.06;4781242;29;20122;-91
2022/05/10 02:47:37;;;;;;;22.33;12.68;;;;;;;10.45;100.00;95033.41;4781046;29;20045;-91
2022/05/10 02:50:06;;;;;;;22.25;11.77;;;;;;;10.51;100.00;95028.22;4781809;29;20037;-91
2022/05/10 02:52:34;;;;;;;26.65;12.55;;;;;;;10.21;100.00;95037.34;4781584;29;20034;-92
2022/05/10 02:55:08;;;;;;;27.63;12.82;;;;;;;10.06;100.00;95035.41;4781283;29;20033;-92
2022/05/10 02:57:33;;;;;;;28.58;13.88;;;;;;;9.82;100.00;95033.81;4781523;29;20035;-92
2022/05/10 03:00:05;;;;;;;28.45;13.77;;;;;;;9.77;100.00;95031.16;4796034;29;20091;-90
2022/05/10 03:02:37;;;;;;;23.90;13.77;;;;;;;9.95;100.00;95031.88;4781351;29;20126;-92
2022/05/10 03:05:04;;;;;;;24.10;14.70;;;;;;;9.89;100.00;95034.44;4781245;29;20030;-91
2022/05/10 03:07:30;;;;;;;22.75;14.07;;;;;;;9.63;100.00;95033.38;4781017;29;20058;-94
2022/05/10 03:09:56;;;;;;;23.42;13.02;;;;;;;9.80;100.00;95029.88;4781346;29;20119;-92
2022/05/10 03:12:22;;;;;;;25.90;13.38;;;;;;;9.81;100.00;95037.47;4780969;29;20342;-92
2022/05/10 03:14:48;;;;;;;21.75;12.38;;;;;;;9.85;100.00;95029.94;4780825;29;20041;-90
2022/05/10 03:17:14;;;;;;;26.35;14.63;;;;;;;9.75;100.00;95026.19;4780760;29;20031;-92
2022/05/10 03:19:43;;;;;;;35.00;14.18;;;;;;;9.59;100.00;95038.31;4780781;29;20031;-91
2022/05/10 03:22:43;;;;;;;24.98;13.20;;;;;;;9.69;100.00;95031.63;4780614;29;20035;-91
2022/05/10 03:25:09;;;;;;;26.33;15.15;;;;;;;9.58;100.00;95030.69;4795556;29;20027;-92
2022/05/10 03:27:35;;;;;;;23.88;13.45;;;;;;;9.76;100.00;95027.78;4780568;29;20085;-92
2022/05/10 03:30:03;;;;;;;24.80;12.80;;;;;;;9.71;100.00;95026.94;4780545;29;20342;-94
2022/05/10 03:32:29;;;;;;;26.45;14.18;;;;;;;9.69;100.00;95029.78;4780528;29;20031;-92
2022/05/10 03:34:55;;;;;;;31.42;14.32;;;;;;;9.64;100.00;95019.25;4780405;29;20122;-92
2022/05/10 03:37:26;;;;;;;24.23;13.90;;;;;;;9.54;100.00;95019.13;4780445;29;20121;-92
2022/05/10 03:39:52;;;;;;;24.75;13.98;;;;;;;9.62;100.00;95022.09;4780965;29;20034;-92
2022/05/10 03:42:18;;;;;;;21.95;13.57;;;;;;;9.60;100.00;95026.00;4780629;29;20119;-95
2022/05/10 03:44:49;;;;;;;22.05;13.07;;;;;;;9.62;100.00;95032.56;4780195;29;20121;-91
2022/05/10 03:47:26;;;;;;;27.40;14.57;;;;;;;9.41;100.00;95026.31;4795468;29;20031;-92
2022/05/10 03:49:55;;;;;;;23.23;13.68;;;;;;;9.37;100.00;95029.66;4795290;29;20355;-92
2022/05/10 03:52:23;;;;;;;31.77;14.50;;;;;;;9.33;100.00;95032.75;4780836;29;20030;-92
2022/05/10 03:54:49;;;;;;;27.17;14.32;;;;;;;9.38;100.00;95033.84;4780902;29;20035;-92
2022/05/10 03:57:19;;;;;;;28.85;14.35;;;;;;;9.48;100.00;95032.16;4780442;29;20031;-91
2022/05/10 03:59:47;;;;;;;22.30;13.18;;;;;;;9.61;100.00;95035.41;4780058;29;20035;-92
2022/05/10 04:02:16;;;;;;;26.90;13.02;;;;;;;9.62;100.00;95042.25;4794965;29;20134;-92
2022/05/10 04:04:41;;;;;;;27.98;13.75;;;;;;;9.62;100.00;95040.41;4780467;29;20064;-91
2022/05/10 04:07:10;;;;;;;26.02;13.43;;;;;;;9.73;100.00;95046.56;4780221;29;20494;-93
2022/05/10 04:09:47;;;;;;;23.42;12.80;;;;;;;9.82;100.00;95049.53;4779829;29;20070;-91
2022/05/10 04:12:15;;;;;;;22.25;12.85;;;;;;;9.88;100.00;95053.00;4779894;29;20103;-92
2022/05/10 04:14:46;;;;;;;25.88;12.77;;;;;;;9.76;100.00;95053.13;4780228;29;20430;-92
2022/05/10 04:17:12;;;;;;;21.40;11.85;;;;;;;9.72;100.00;95058.06;4794725;29;20041;-92
2022/05/10 04:19:38;;;;;;;21.95;11.90;;;;;;;9.77;100.00;95054.72;4779754;29;20026;-92
2022/05/10 04:25:25;;;;;;;29.80;13.35;;;;;;;10.08;100.00;95059.50;4810538;29;20041;-91
2022/05/10 04:27:54;;;;;;;28.67;11.85;;;;;;;10.34;100.00;95060.53;4779625;29;20034;-92
2022/05/10 04:30:21;;;;;;;26.98;11.57;;;;;;;10.41;100.00;95058.53;4779817;29;20034;-92
2022/05/10 04:32:46;;;;;;;16.63;9.55;;;;;;;10.62;100.00;95058.69;4779764;29;20038;-92
2022/05/10 04:35:13;;;;;;;19.98;10.18;;;;;;;10.63;100.00;95056.88;4780027;29;20039;-92
2022/05/10 04:37:39;;;;;;;19.08;9.95;;;;;;;10.57;100.00;95062.06;4779884;29;20036;-92
2022/05/10 04:42:56;;;;;;;23.27;9.85;;;;;;;10.70;100.00;95057.44;4811653;29;20048;-93
2022/05/10 04:45:22;;;;;;;17.83;9.32;;;;;;;11.07;100.00;95071.59;4791269;29;20046;-92
2022/05/10 04:47:47;;;;;;;19.63;10.13;;;;;;;11.17;100.00;95069.81;4797323;29;20352;-91
2022/05/10 04:50:13;;;;;;;22.85;8.90;;;;;;;11.34;100.00;95071.50;4812381;29;20168;-93
2022/05/10 04:52:42;;;;;;;24.58;8.93;;;;;;;11.50;100.00;95077.59;4812530;29;20038;-93
2022/05/10 04:55:09;;;;;;;16.73;9.07;;;;;;;11.40;100.00;95077.56;4797488;29;20065;-92
2022/05/10 04:57:41;;;;;;;19.65;8.52;;;;;;;11.42;100.00;95081.50;4797444;29;20129;-91
2022/05/10 05:00:09;;;;;;;17.90;9.15;;;;;;;11.26;100.00;95077.22;4812334;29;20061;-91
2022/05/10 05:02:46;;;;;;;23.38;9.63;;;;;;;11.53;100.00;95076.31;4797045;29;20034;-91
2022/05/10 05:05:15;;;;;;;22.90;10.65;;;;;;;11.37;100.00;95073.63;4811915;29;20042;-92
2022/05/10 05:07:44;;;;;;;15.43;8.82;;;;;;;11.63;100.00;95073.75;4796972;29;20045;-93
2022/05/10 05:10:10;;;;;;;19.77;9.90;;;;;;;11.70;100.00;95076.91;4812196;29;20038;-90
2022/05/10 05:12:39;;;;;;;13.82;8.65;;;;;;;11.66;100.00;95083.72;4796835;29;20070;-91
2022/05/10 05:15:08;;;;;;;17.92;9.52;;;;;;;11.76;100.00;95084.81;4796945;29;20073;-90
2022/05/10 05:17:33;;;;;;;18.05;10.55;;;;;;;11.94;100.00;95080.94;4811402;29;20356;-91
2022/05/10 05:19:59;;;;;;;15.65;8.50;;;;;;;12.07;100.00;95090.22;4796984;29;20045;-91
2022/05/10 05:22:28;;;;;;;16.35;8.98;;;;;;;12.05;100.00;95089.66;4797251;29;20437;-91
2022/05/10 05:24:54;;;;;;;18.63;8.85;;;;;;;11.98;100.00;95087.28;4826945;29;20087;-91
2022/05/10 05:27:22;;;;;;;17.13;8.77;;;;;;;12.23;100.00;95089.19;4811730;29;20034;-91
2022/05/10 05:29:48;;;;;;;21.02;9.73;;;;;;;12.41;100.00;95085.31;4797389;29;20034;-90
2022/05/10 05:32:29;;;;;;;19.10;9.55;;;;;;;12.44;100.00;95097.91;4797153;29;20141;-92
2022/05/10 05:34:58;;;;;;;20.10;9.75;;;;;;;12.61;100.00;95091.63;4812038;29;20026;-92
2022/05/10 05:37:33;;;;;;;17.45;9.45;;;;;;;12.75;100.00;95094.50;4796920;29;20451;-90
2022/05/10 05:40:07;;;;;;;18.95;9.85;;;;;;;12.41;100.00;95095.00;4798218;29;20065;-91
2022/05/10 05:42:32;;;;;;;23.30;10.38;;;;;;;12.52;100.00;95088.72;4797090;29;20452;-89
2022/05/10 05:44:58;;;;;;;17.52;9.48;;;;;;;12.64;100.00;95095.56;4811793;29;20026;-90
2022/05/10 05:47:25;;;;;;;18.48;9.65;;;;;;;12.96;100.00;95105.03;4796818;29;20117;-91
2022/05/10 05:49:50;;;;;;;21.95;9.65;;;;;;;13.11;100.00;95107.66;4796816;29;20030;-90
2022/05/10 05:52:20;;;;;;;15.52;9.02;;;;;;;13.13;100.00;95105.56;4811900;29;20391;-90
2022/05/10 05:54:46;;;;;;;18.95;9.27;;;;;;;13.35;100.00;95104.47;4797056;29;20449;-89
2022/05/10 05:57:12;;;;;;;12.88;8.50;;;;;;;13.43;100.00;95100.50;4796557;29;20030;-90
2022/05/10 05:59:37;;;;;;;16.60;9.70;;;;;;;13.49;100.00;95110.00;4800086;29;20322;-90
2022/05/10 06:02:03;;;;;;;16.98;9.85;;;;;;;13.67;100.00;95100.75;4800232;29;20030;-89
2022/05/10 06:04:28;;;;;;;15.35;9.18;;;;;;;13.85;100.00;95107.25;4799695;29;20030;-89
2022/05/10 06:06:54;;;;;;;15.63;9.23;;;;;;;13.82;100.00;95109.66;4815184;29;20091;-90
2022/05/10 06:09:22;;;;;;;16.17;9.27;;;;;;;13.78;100.00;95106.75;4800111;29;20079;-90
2022/05/10 06:11:49;;;;;;;22.35;9.35;;;;;;;13.93;100.00;95111.19;4800141;29;20030;-91
2022/05/10 06:14:14;;;;;;;16.65;9.90;;;;;;;13.75;100.00;95106.50;4799960;29;20042;-90
2022/05/10 06:16:40;;;;;;;15.35;9.55;;;;;;;13.98;100.00;95113.78;4814683;29;20038;-90
2022/05/10 06:19:08;;;;;;;18.08;9.43;;;;;;;14.27;100.00;95115.75;4814765;29;20034;-90
2022/05/10 06:21:33;;;;;;;23.20;10.40;;;;;;;14.43;100.00;95123.59;4799963;29;20057;-90
2022/05/10 06:24:01;;;;;;;19.35;8.90;;;;;;;14.48;100.00;95126.19;4799746;29;20070;-90
2022/05/10 06:26:27;;;;;;;21.33;10.30;;;;;;;14.09;100.00;95125.06;4799936;29;20038;-90
2022/05/10 06:28:52;;;;;;;19.48;10.43;;;;;;;14.22;100.00;95120.25;4799707;29;20048;-91
2022/05/10 06:31:18;;;;;;;14.95;8.38;;;;;;;14.34;100.00;95123.38;4799886;29;20038;-90
2022/05/10 06:33:43;;;;;;;23.02;9.93;;;;;;;14.40;100.00;95132.81;4799716;29;20087;-91
2022/05/10 06:36:09;;;;;;;18.48;10.27;;;;;;;14.33;100.00;95134.16;4799939;29;20038;-90
2022/05/10 06:38:34;;;;;;;21.15;9.27;;;;;;;14.65;100.00;95132.94;4799731;29;20035;-90
2022/05/10 06:41:03;;;;;;;20.45;9.55;;;;;;;14.74;100.00;95127.91;4814292;29;20065;-91
2022/05/10 06:43:30;;;;;;;20.33;9.30;;;;;;;14.78;100.00;95127.09;4799679;29;20034;-90
2022/05/10 06:45:58;;;;;;;16.58;9.75;;;;;;;15.02;100.00;95129.00;4799249;29;20038;-90
2022/05/10 06:48:24;;;;;;;15.75;9.80;;;;;;;15.17;100.00;95135.22;4799641;29;20111;-90
2022/05/10 06:50:50;;;;;;;20.77;9.68;;;;;;;15.13;100.00;95137.63;4799514;29;20091;-90
2022/05/10 06:53:16;;;;;;;22.48;10.68;;;;;;;15.21;100.00;95138.91;4814293;29;20038;-90
2022/05/10 06:55:42;;;;;;;16.02;9.93;;;;;;;15.45;100.00;95130.22;4814236;29;20046;-90
2022/05/10 06:58:09;;;;;;;19.25;9.80;;;;;;;15.62;100.00;95133.22;4799173;29;20041;-90
2022/05/10 07:00:37;;;;;;;20.08;9.82;;;;;;;15.66;100.00;95130.81;4798955;29;20034;-89
2022/05/10 07:03:07;;;;;;;19.50;10.18;;;;;;;15.61;100.00;95126.34;4799159;29;20034;-89
2022/05/10 07:05:33;;;;;;;16.23;9.05;;;;;;;15.69;100.00;95120.47;4799208;29;20041;-90
2022/05/10 07:07:59;;;;;;;16.17;8.77;;;;;;;15.83;100.00;95125.09;4814118;29;20095;-90
2022/05/10 07:10:24;;;;;;;23.25;9.32;;;;;;;15.75;100.00;95131.78;4798630;29;20140;-90
2022/05/10 07:13:44;;;;;;;19.23;8.80;;;;;;;16.05;100.00;95132.50;4814370;29;20405;-90
2022/05/10 07:16:10;;;;;;;15.13;8.25;;;;;;;16.14;100.00;95135.31;4813788;29;20034;-90
2022/05/10 07:19:24;;;;;;;15.82;9.48;;;;;;;16.09;100.00;95133.50;4813705;29;20041;-90
2022/05/10 07:21:50;;;;;;;18.20;8.93;;;;;;;16.02;100.00;95132.28;4829604;29;20034;-90
2022/05/10 07:24:19;;;;;;;15.10;8.90;;;;;;;16.24;100.00;95124.63;4798413;29;20053;-90
2022/05/10 07:26:47;;;;;;;19.48;8.23;;;;;;;16.51;100.00;95120.56;4799093;29;20066;-90
2022/05/10 07:29:14;;;;;;;20.70;8.68;;;;;;;16.36;100.00;95129.47;4798386;29;20030;-91
2022/05/10 07:31:40;;;;;;;14.93;9.35;;;;;;;16.67;100.00;95136.22;4813799;29;20414;-91
2022/05/10 07:34:06;;;;;;;20.45;9.65;;;;;;;16.65;100.00;95131.19;4798466;29;20034;-90
2022/05/10 07:36:34;;;;;;;20.90;9.95;;;;;;;16.57;100.00;95131.06;4798803;29;20034;-91
2022/05/10 07:39:05;;;;;;;18.90;9.18;;;;;;;16.80;100.00;95126.75;4798904;29;20433;-91
2022/05/10 07:41:31;;;;;;;15.30;9.80;;;;;;;16.77;100.00;95119.41;4798295;29;20034;-90
2022/05/10 07:43:56;;;;;;;17.35;9.10;;;;;;;16.92;100.00;95124.44;4813179;29;20027;-89
2022/05/10 07:46:26;;;;;;;14.60;9.18;;;;;;;17.01;100.00;95127.25;4797987;29;20027;-91
2022/05/10 07:48:51;;;;;;;22.50;9.38;;;;;;;17.20;100.00;95124.56;4813894;29;20042;-90
2022/05/10 07:51:18;;;;;;;20.35;9.52;;;;;;;17.28;100.00;95124.97;4798339;29;20333;-90
2022/05/10 07:53:44;;;;;;;24.15;10.27;;;;;;;17.27;100.00;95126.03;4798400;29;20026;-91
2022/05/10 07:56:10;;;;;;;18.75;10.15;;;;;;;17.33;100.00;95128.31;4798326;29;20030;-91
2022/05/10 07:58:38;;;;;;;22.15;11.07;;;;;;;17.42;100.00;95130.31;4798115;29;20456;-90
2022/05/10 08:01:04;;;;;;;20.33;10.20;;;;;;;17.48;100.00;95129.13;4798486;29;20030;-90
2022/05/10 08:03:30;;;;;;;23.50;12.60;;;;;;;17.03;100.00;95132.28;4797943;29;20026;-91
2022/05/10 08:05:56;;;;;;;19.35;11.32;;;;;;;17.49;100.00;95134.13;4797864;29;20345;-91
2022/05/10 08:08:27;;;;;;;23.40;12.43;;;;;;;17.45;100.00;95135.81;4797878;29;20056;-90
2022/05/10 08:10:53;;;;;;;25.27;12.88;;;;;;;17.41;100.00;95128.72;4797836;29;20034;-91
2022/05/10 08:13:25;;;;;;;24.98;12.20;;;;;;;17.53;100.00;95123.75;4798064;29;20463;-91
2022/05/10 08:15:54;;;;;;;21.92;11.00;;;;;;;17.59;100.00;95125.22;4797694;29;20038;-91
2022/05/10 08:18:20;;;;;;;21.73;10.10;;;;;;;17.78;100.00;95119.84;4798527;29;20052;-90
2022/05/10 08:20:49;;;;;;;24.60;9.60;;;;;;;17.74;100.00;95128.66;4812068;29;20030;-90
2022/05/10 08:23:21;;;;;;;14.93;8.55;;;;;;;17.78;100.00;95113.72;4797827;29;20026;-90
2022/05/10 08:25:57;;;;;;;17.98;7.03;;;;;;;17.88;100.00;95112.78;4813095;29;20061;-90
2022/05/10 08:28:28;;;;;;;15.52;7.07;;;;;;;17.74;100.00;95112.75;4797637;29;20030;-90
2022/05/10 08:30:54;;;;;;;15.02;5.18;;;;;;;17.52;100.00;95116.88;4812542;29;20030;-90
2022/05/10 08:33:23;;;;;;;17.10;5.78;;;;;;;17.77;100.00;95106.88;4797537;29;20481;-91
2022/05/10 08:35:49;;;;;;;11.05;5.78;;;;;;;17.77;100.00;95101.56;4812547;29;20041;-90
2022/05/10 08:38:14;;;;;;;16.48;6.80;;;;;;;17.71;100.00;95103.53;4797740;29;20030;-90
2022/05/10 08:40:49;;;;;;;11.95;6.05;;;;;;;18.11;100.00;95110.22;4797342;29;20057;-90
2022/05/10 08:43:23;;;;;;;17.77;7.03;;;;;;;17.97;100.00;95116.28;4812383;29;20034;-90
2022/05/10 08:45:48;;;;;;;15.40;6.55;;;;;;;18.08;100.00;95106.31;4812557;29;20031;-90
2022/05/10 08:48:15;;;;;;;14.48;6.20;;;;;;;18.06;100.00;95114.56;4797106;29;20090;-91
2022/05/10 08:50:45;;;;;;;27.35;6.93;;;;;;;18.12;100.00;95106.47;4797548;29;20044;-91
2022/05/10 08:53:11;;;;;;;8.93;4.72;;;;;;;18.29;100.00;95109.31;4797728;29;20026;-91
2022/05/10 08:56:22;;;;;;;19.27;6.18;;;;;;;18.17;100.00;95104.50;4797565;29;20094;-91
2022/05/10 08:59:04;;;;;;;12.02;5.60;;;;;;;18.12;100.00;95103.81;4780536;29;20444;-91
2022/05/10 09:01:37;;;;;;;15.48;5.47;;;;;;;18.22;100.00;95101.78;4797402;29;20026;-91
2022/05/10 09:04:25;;;;;;;15.40;5.82;;;;;;;17.50;100.00;95093.31;4796905;29;20091;-88
2022/05/10 09:06:57;;;;;;;14.18;6.53;;;;;;;17.31;100.00;95092.63;4797137;29;20026;-87
2022/05/10 09:09:32;;;;;;;17.17;6.25;;;;;;;17.59;100.00;95101.38;4812264;29;20040;-88
2022/05/10 09:12:08;;;;;;;10.65;5.18;;;;;;;17.72;100.00;95097.16;4811932;29;20034;-89
2022/05/10 09:14:35;;;;;;;12.13;5.97;;;;;;;17.95;100.00;95095.38;4797307;29;20129;-88
2022/05/10 09:17:03;;;;;;;14.80;5.15;;;;;;;18.30;100.00;95100.28;4796752;29;20036;-88
2022/05/10 09:19:38;;;;;;;12.77;5.70;;;;;;;18.15;100.00;95097.97;4812162;29;20027;-88
2022/05/10 09:22:27;;;;;;;15.45;5.40;;;;;;;18.63;100.00;95097.44;4797203;29;20393;-88
2022/05/10 09:24:56;;;;;;;13.50;5.32;;;;;;;18.87;99.14;95103.53;4811541;29;20035;-88
2022/05/10 09:27:27;;;;;;;18.10;5.07;;;;;;;19.03;99.94;95099.44;4797569;29;20041;-89
2022/05/10 09:29:52;;;;;;;11.10;4.75;;;;;;;18.85;89.49;95098.50;4797258;29;20038;-89
2022/05/10 09:35:14;;;;;;;13.70;5.80;;;;;;;18.84;100.00;95094.28;4831244;29;20139;-89
2022/05/10 09:37:56;;;;;;;13.98;5.10;;;;;;;19.00;100.00;95092.09;4815561;29;20041;-88
2022/05/10 09:40:40;;;;;;;20.23;5.78;;;;;;;18.83;100.00;95084.75;4800592;29;20030;-88
2022/05/10 09:43:22;;;;;;;21.23;5.70;;;;;;;19.10;100.00;95090.28;4815470;29;20053;-89
2022/05/10 09:46:11;;;;;;;18.15;4.78;;;;;;;19.20;86.06;95088.13;4800838;29;20357;-88
2022/05/10 09:48:38;;;;;;;11.05;5.05;;;;;;;19.48;100.00;95087.16;4800203;29;20041;-88
2022/05/10 09:51:24;;;;;;;20.20;5.93;;;;;;;19.13;100.00;95087.78;4800553;29;20133;-89
2022/05/10 09:53:50;;;;;;;21.27;5.63;;;;;;;19.67;100.00;95091.47;4799985;29;20444;-89
2022/05/10 09:56:38;;;;;;;16.65;5.50;;;;;;;19.68;100.00;95088.50;4800294;29;20038;-89
2022/05/10 09:59:33;;;;;;;15.02;5.15;;;;;;;19.94;100.00;95084.38;4800079;29;20031;-89
2022/05/10 10:02:01;;;;;;;21.00;5.60;;;;;;;20.12;100.00;95090.50;4805083;29;20042;-88
2022/05/10 10:04:33;;;;;;;15.57;4.80;;;;;;;20.05;81.19;95083.00;4814884;29;20026;-89
2022/05/10 10:07:15;;;;;;;15.48;5.22;;;;;;;19.89;82.99;95093.28;4800069;29;20444;-89
2022/05/10 10:09:49;;;;;;;15.55;5.03;;;;;;;19.95;100.00;95080.66;4800176;29;20034;-89
2022/05/10 10:12:19;;;;;;;17.80;5.75;;;;;;;19.83;78.08;95079.31;4799924;29;20034;-88
2022/05/10 10:14:47;;;;;;;15.73;5.00;;;;;;;20.17;81.93;95074.44;4814616;29;20126;-88
2022/05/10 10:17:25;;;;;;;19.23;5.13;;;;;;;20.41;100.00;95078.50;4814679;29;20030;-89
2022/05/10 10:20:07;;;;;;;20.95;5.47;;;;;;;19.74;100.00;95076.66;4799809;29;20122;-89
2022/05/10 10:22:38;;;;;;;15.20;4.65;;;;;;;19.30;81.64;95078.34;4799697;29;20026;-88
2022/05/10 10:25:09;;;;;;;17.48;5.78;;;;;;;19.31;85.18;95075.38;4814608;29;20037;-88
2022/05/10 10:27:36;;;;;;;17.48;5.55;;;;;;;19.79;100.00;95073.03;4799532;29;20031;-89
2022/05/10 10:30:05;;;;;;;19.80;4.35;;;;;;;20.39;93.55;95068.19;4799610;29;20034;-88
2022/05/10 10:32:34;;;;;;;17.20;5.15;;;;;;;20.40;88.90;95069.75;4799533;29;20465;-88
2022/05/10 10:35:13;;;;;;;16.00;4.55;;;;;;;20.58;74.74;95069.75;4814474;29;20058;-90
2022/05/10 10:37:42;;;;;;;11.82;4.55;;;;;;;20.82;74.86;95069.28;4812712;29;20378;-89
2022/05/10 10:40:13;;;;;;;12.45;4.32;;;;;;;20.71;78.41;95063.47;4814461;29;20038;-89
2022/05/10 10:42:56;;;;;;;16.20;4.63;;;;;;;20.68;83.60;95066.75;4805210;29;20096;-89
2022/05/10 10:45:33;;;;;;;18.13;5.30;;;;;;;21.04;93.30;95065.63;4781528;29;20038;-89
2022/05/10 10:48:26;;;;;;;11.38;4.63;;;;;;;21.28;84.62;95056.31;4781361;29;20034;-89
2022/05/10 10:50:52;;;;;;;11.23;4.43;;;;;;;21.47;90.31;95060.47;4796150;29;20034;-89
2022/05/10 10:53:20;;;;;;;9.50;4.15;;;;;;;21.37;72.05;95050.16;4781283;29;20108;-89
2022/05/10 10:55:48;;;;;;;18.15;4.82;;;;;;;20.41;81.33;95047.34;4796547;29;20433;-90
2022/05/10 10:58:55;;;;;;;20.60;5.15;;;;;;;20.38;84.51;95041.88;4795965;29;20129;-90
2022/05/10 11:01:29;;;;;;;14.93;5.28;;;;;;;19.64;94.09;95037.06;4756401;30;20398;-89
2022/05/10 11:04:15;;;;;;;15.63;4.72;;;;;;;19.64;100.00;95034.38;4789655;29;20456;-89
2022/05/10 11:06:52;;;;;;;13.35;5.32;;;;;;;19.48;100.00;95029.50;4781271;29;20034;-89
2022/05/10 11:09:23;;;;;;;14.73;5.13;;;;;;;19.69;86.03;95036.13;4795987;29;20043;-90
2022/05/10 11:11:53;;;;;;;14.13;5.32;;;;;;;19.77;89.91;95028.16;4795636;29;20030;-88
2022/05/10 11:14:21;;;;;;;29.65;5.55;;;;;;;19.31;97.66;95035.53;4781079;29;20172;-89
2022/05/10 11:17:03;;;;;;;16.38;5.40;;;;;;;19.36;100.00;95029.31;4795425;29;20110;-91
2022/05/10 11:19:47;;;;;;;16.80;4.75;;;;;;;19.41;100.00;95023.06;4780622;29;20196;-90
2022/05/10 11:26:27;;;;;;;14.95;4.65;;;;;;;21.22;93.40;95022.19;4811598;29;20138;-89
2022/05/10 11:29:29;;;;;;;10.73;4.70;;;;;;;21.38;82.52;95025.88;4807040;29;20043;-90
2022/05/10 11:32:11;;;;;;;14.75;5.40;;;;;;;21.20;72.90;95017.16;4791296;29;20196;-90
2022/05/10 11:35:34;;;;;;;14.50;5.03;;;;;;;21.30;90.46;95016.00;4798172;29;20042;-90
2022/05/10 11:38:26;;;;;;;12.43;4.38;;;;;;;21.62;84.53;95008.53;4758640;30;20042;-89
2022/05/10 11:41:18;;;;;;;16.88;4.45;;;;;;;21.46;73.63;95010.94;4773421;30;20446;-89
2022/05/10 11:43:58;;;;;;;13.77;4.20;;;;;;;20.81;74.64;95005.69;4806808;29;20049;-90
2022/05/10 11:46:33;;;;;;;11.30;4.30;;;;;;;19.98;78.87;95005.56;4813280;29;20100;-89
2022/05/10 11:49:08;;;;;;;11.77;4.82;;;;;;;19.96;97.92;94997.88;4813301;29;20038;-89
2022/05/10 11:51:42;;;;;;;9.48;4.78;;;;;;;19.81;90.21;95000.97;4813105;29;20066;-90
2022/05/10 11:54:11;;;;;;;13.15;4.45;;;;;;;19.90;72.64;94999.09;4813004;29;20046;-89
2022/05/10 11:56:38;;;;;;;9.45;4.25;;;;;;;20.51;76.34;95006.34;4812910;29;20102;-89
2022/05/10 11:59:23;;;;;;;19.73;5.07;;;;;;;20.99;71.17;94991.22;4798461;29;20126;-90
2022/05/10 12:01:51;;;;;;;18.75;4.20;;;;;;;21.18;79.51;94990.06;4813016;29;20042;-90
2022/05/10 12:04:45;;;;;;;15.35;4.50;;;;;;;21.24;72.44;94986.13;4797711;29;20045;-90
2022/05/10 12:07:20;;;;;;;;;;;;;;;21.56;65.21;94980.47;4798384;29;20398;-89
2022/05/10 12:09:51;;;;;;;15.48;4.60;;;;;;;21.49;78.23;94977.53;4812926;29;19929;-90
2022/05/10 12:12:32;;;;;;;16.52;4.57;;;;;;;20.83;76.64;94974.22;4813257;29;20428;-91